createdAt,value
2015-09-11T00:00:03.271Z,95681
2015-09-11T00:00:21.804Z,95686
2015-09-11T00:00:40.289Z,95684
2015-09-11T00:00:58.914Z,95689
2015-09-11T00:01:17.494Z,95683
2015-09-11T00:01:35.885Z,95678
2015-09-11T00:01:54.338Z,95692
2015-09-11T00:02:13.010Z,95684
2015-09-11T00:02:31.511Z,95687
2015-09-11T00:02:49.901Z,95689
2015-09-11T00:03:08.386Z,95678
2015-09-11T00:03:26.968Z,95684
2015-09-11T00:03:45.734Z,95678
2015-09-11T00:04:04.666Z,95687
2015-09-11T00:04:22.497Z,95679
2015-09-11T00:04:40.862Z,95681
2015-09-11T00:04:59.204Z,95678
2015-09-11T00:05:17.517Z,95684
2015-09-11T00:05:35.769Z,95678
2015-09-11T00:05:54.003Z,95679
2015-09-11T00:06:12.409Z,95681
2015-09-11T00:06:30.786Z,95690
2015-09-11T00:06:49.239Z,95684
2015-09-11T00:07:07.708Z,95679
2015-09-11T00:07:26.194Z,95679
2015-09-11T00:07:44.632Z,95673
2015-09-11T00:08:03.163Z,95674
2015-09-11T00:08:21.663Z,95682
2015-09-11T00:08:40.024Z,95685
2015-09-11T00:08:58.602Z,95680
2015-09-11T00:09:17.070Z,95679
2015-09-11T00:09:35.464Z,95685
2015-09-11T00:09:54.089Z,95679
2015-09-11T00:10:12.480Z,95676
2015-09-11T00:10:31.137Z,95682
2015-09-11T00:10:49.934Z,95676
2015-09-11T00:11:08.293Z,95679
2015-09-11T00:11:26.684Z,95689
2015-09-11T00:11:45.311Z,95681
2015-09-11T00:12:03.811Z,95679
2015-09-11T00:12:22.280Z,95679
2015-09-11T00:12:40.845Z,95684
2015-09-11T00:12:59.408Z,95687
2015-09-11T00:13:18.079Z,95681
2015-09-11T00:13:36.065Z,95685
2015-09-11T00:13:54.471Z,95673
2015-09-11T00:14:13.018Z,95682
2015-09-11T00:14:31.393Z,95682
2015-09-11T00:14:50.115Z,95677
2015-09-11T00:15:08.568Z,95683
2015-09-11T00:15:26.990Z,95682
2015-09-11T00:15:45.507Z,95688
2015-09-11T00:16:03.820Z,95682
2015-09-11T00:16:22.226Z,95684
2015-09-11T00:16:40.666Z,95676
2015-09-11T00:16:59.259Z,95681
2015-09-11T00:17:17.728Z,95676
2015-09-11T00:17:36.228Z,95681
2015-09-11T00:17:54.635Z,95681
2015-09-11T00:18:13.010Z,95681
2015-09-11T00:18:31.432Z,95673
2015-09-11T00:18:49.873Z,95670
2015-09-11T00:19:08.591Z,95670
2015-09-11T00:19:27.123Z,95665
2015-09-11T00:19:45.483Z,95679
2015-09-11T00:20:04.092Z,95670
2015-09-11T00:20:22.686Z,95673
2015-09-11T00:20:41.108Z,95674
2015-09-11T00:20:59.516Z,95674
2015-09-11T00:21:17.876Z,95674
2015-09-11T00:21:36.282Z,95679
2015-09-11T00:21:54.690Z,95671
2015-09-11T00:22:13.190Z,95666
2015-09-11T00:22:31.581Z,95664
2015-09-11T00:22:50.192Z,95667
2015-09-11T00:23:08.630Z,95664
2015-09-11T00:23:27.036Z,95669
2015-09-11T00:23:45.522Z,95660
2015-09-11T00:24:03.944Z,95675
2015-09-11T00:24:22.382Z,95664
2015-09-11T00:24:40.913Z,95667
2015-09-11T00:24:59.431Z,95667
2015-09-11T00:25:17.915Z,95669
2015-09-11T00:25:36.415Z,95667
2015-09-11T00:25:54.823Z,95661
2015-09-11T00:26:13.495Z,95667
2015-09-11T00:26:31.979Z,95667
2015-09-11T00:26:51.060Z,95656
2015-09-11T00:27:09.638Z,95665
2015-09-11T00:27:28.388Z,95667
2015-09-11T00:27:46.919Z,95667
2015-09-11T00:28:05.499Z,95667
2015-09-11T00:28:23.983Z,95670
2015-09-11T00:28:42.515Z,95661
2015-09-11T00:29:01.094Z,95670
2015-09-11T00:29:19.672Z,95658
2015-09-11T00:29:38.234Z,95661
2015-09-11T00:29:56.894Z,95667
2015-09-11T00:30:15.316Z,95658
2015-09-11T00:30:33.706Z,95667
2015-09-11T00:30:52.269Z,95672
2015-09-11T00:31:10.739Z,95673
2015-09-11T00:31:29.114Z,95676
2015-09-11T00:31:47.646Z,95676
2015-09-11T00:32:06.148Z,95660
2015-09-11T00:32:24.616Z,95670
2015-09-11T00:32:43.038Z,95656
2015-09-11T00:33:01.492Z,95667
2015-09-11T00:33:19.899Z,95665
2015-09-11T00:33:38.321Z,95662
2015-09-11T00:33:56.774Z,95662
2015-09-11T00:34:15.199Z,95656
2015-09-11T00:34:33.636Z,95656
2015-09-11T00:34:52.089Z,95659
2015-09-11T00:35:10.496Z,95664
2015-09-11T00:35:28.950Z,95667
2015-09-11T00:35:47.496Z,95668
2015-09-11T00:36:05.873Z,95673
2015-09-11T00:36:24.311Z,95659
2015-09-11T00:36:42.702Z,95652
2015-09-11T00:37:01.235Z,95660
2015-09-11T00:37:19.594Z,95655
2015-09-11T00:37:38.000Z,95646
2015-09-11T00:37:56.422Z,95660
2015-09-11T00:38:14.831Z,95661
2015-09-11T00:38:33.362Z,95655
2015-09-11T00:38:51.737Z,95661
2015-09-11T00:39:10.162Z,95669
2015-09-11T00:39:28.584Z,95661
2015-09-11T00:39:47.005Z,95661
2015-09-11T00:40:05.429Z,95655
2015-09-11T00:40:23.773Z,95666
2015-09-11T00:40:42.226Z,95661
2015-09-11T00:41:00.789Z,95663
2015-09-11T00:41:19.262Z,95650
2015-09-11T00:41:37.637Z,95661
2015-09-11T00:41:56.215Z,95652
2015-09-11T00:42:14.702Z,95661
2015-09-11T00:42:33.108Z,95664
2015-09-11T00:42:51.655Z,95672
2015-09-11T00:43:10.173Z,95664
2015-09-11T00:43:28.673Z,95659
2015-09-11T00:43:47.063Z,95659
2015-09-11T00:44:05.438Z,95651
2015-09-11T00:44:23.910Z,95648
2015-09-11T00:44:42.519Z,95651
2015-09-11T00:45:00.910Z,95662
2015-09-11T00:45:19.364Z,95656
2015-09-11T00:45:37.802Z,95653
2015-09-11T00:45:56.380Z,95651
2015-09-11T00:46:15.022Z,95651
2015-09-11T00:46:33.397Z,95653
2015-09-11T00:46:51.897Z,95652
2015-09-11T00:47:10.335Z,95653
2015-09-11T00:47:28.727Z,95653
2015-09-11T00:47:47.352Z,95650
2015-09-11T00:48:05.727Z,95664
2015-09-11T00:48:24.136Z,95653
2015-09-11T00:48:42.511Z,95646
2015-09-11T00:49:00.964Z,95651
2015-09-11T00:49:19.481Z,95662
2015-09-11T00:49:38.013Z,95648
2015-09-11T00:49:56.372Z,95649
2015-09-11T00:50:14.810Z,95652
2015-09-11T00:50:33.187Z,95644
2015-09-11T00:50:51.749Z,95655
2015-09-11T00:51:10.124Z,95655
2015-09-11T00:51:28.595Z,95654
2015-09-11T00:51:46.985Z,95652
2015-09-11T00:52:05.501Z,95665
2015-09-11T00:52:23.987Z,95652
2015-09-11T00:52:42.675Z,95646
2015-09-11T00:53:01.191Z,95643
2015-09-11T00:53:19.644Z,95654
2015-09-11T00:53:38.099Z,95652
2015-09-11T00:53:56.568Z,95649
2015-09-11T00:54:14.974Z,95654
2015-09-11T00:54:33.429Z,95646
2015-09-11T00:54:51.898Z,95646
2015-09-11T00:55:10.288Z,95646
2015-09-11T00:55:28.727Z,95652
2015-09-11T00:55:47.102Z,95649
2015-09-11T00:56:05.633Z,95647
2015-09-11T00:56:24.354Z,95641
2015-09-11T00:56:42.948Z,95644
2015-09-11T00:57:01.338Z,95649
2015-09-11T00:57:19.729Z,95641
2015-09-11T00:57:38.435Z,95646
2015-09-11T00:57:56.826Z,95646
2015-09-11T00:58:15.138Z,95654
2015-09-11T00:58:33.796Z,95641
2015-09-11T00:58:52.265Z,95649
2015-09-11T00:59:10.640Z,95649
2015-09-11T00:59:29.080Z,95644
2015-09-11T00:59:47.564Z,95649
2015-09-11T01:00:05.955Z,95644
2015-09-11T01:00:24.626Z,95644
2015-09-11T01:00:43.066Z,95638
2015-09-11T01:01:01.566Z,95652
2015-09-11T01:01:19.988Z,95638
2015-09-11T01:01:38.458Z,95646
2015-09-11T01:01:56.989Z,95640
2015-09-11T01:02:15.364Z,95635
2015-09-11T01:02:33.836Z,95644
2015-09-11T01:02:52.211Z,95633
2015-09-11T01:03:10.586Z,95641
2015-09-11T01:03:29.148Z,95628
2015-09-11T01:03:47.696Z,95636
2015-09-11T01:04:06.212Z,95639
2015-09-11T01:04:24.602Z,95639
2015-09-11T01:04:43.010Z,95639
2015-09-11T01:05:01.448Z,95639
2015-09-11T01:05:19.995Z,95634
2015-09-11T01:05:38.419Z,95628
2015-09-11T01:05:56.997Z,95633
2015-09-11T01:06:15.356Z,95644
2015-09-11T01:06:33.950Z,95644
2015-09-11T01:06:52.359Z,95638
2015-09-11T01:07:10.750Z,95636
2015-09-11T01:07:29.140Z,95633
2015-09-11T01:07:47.641Z,95636
2015-09-11T01:08:06.141Z,95636
2015-09-11T01:08:24.579Z,95634
2015-09-11T01:08:43.081Z,95634
2015-09-11T01:09:01.487Z,95639
2015-09-11T01:09:19.925Z,95637
2015-09-11T01:09:38.300Z,95634
2015-09-11T01:09:56.692Z,95625
2015-09-11T01:10:15.239Z,95639
2015-09-11T01:10:33.661Z,95629
2015-09-11T01:10:52.383Z,95634
2015-09-11T01:11:10.836Z,95640
2015-09-11T01:11:29.195Z,95634
2015-09-11T01:11:47.837Z,95628
2015-09-11T01:12:15.306Z,95628
2015-09-11T01:12:33.743Z,95623
2015-09-11T01:12:52.230Z,95634
2015-09-11T01:13:10.683Z,95628
2015-09-11T01:13:29.042Z,95637
2015-09-11T01:13:47.573Z,95634
2015-09-11T01:14:06.169Z,95629
2015-09-11T01:14:24.669Z,95637
2015-09-11T01:14:43.153Z,95628
2015-09-11T01:15:01.812Z,95634
2015-09-11T01:15:20.390Z,95628
2015-09-11T01:15:38.890Z,95641
2015-09-11T01:15:57.439Z,95627
2015-09-11T01:16:16.314Z,95633
2015-09-11T01:16:34.689Z,95633
2015-09-11T01:16:53.111Z,95633
2015-09-11T01:17:11.800Z,95636
2015-09-11T01:17:30.206Z,95644
2015-09-11T01:17:48.644Z,95639
2015-09-11T01:18:07.036Z,95636
2015-09-11T01:18:25.521Z,95633
2015-09-11T01:18:43.958Z,95636
2015-09-11T01:19:02.554Z,95634
2015-09-11T01:19:21.132Z,95645
2015-09-11T01:19:39.632Z,95631
2015-09-11T01:19:58.040Z,95632
2015-09-11T01:20:16.556Z,95631
2015-09-11T01:20:35.134Z,95637
2015-09-11T01:20:53.697Z,95641
2015-09-11T01:21:12.260Z,95630
2015-09-11T01:21:30.995Z,95644
2015-09-11T01:21:49.370Z,95639
2015-09-11T01:22:07.810Z,95633
2015-09-11T01:22:26.279Z,95636
2015-09-11T01:22:44.904Z,95634
2015-09-11T01:23:03.530Z,95639
2015-09-11T01:23:22.077Z,95636
2015-09-11T01:23:40.436Z,95631
2015-09-11T01:23:58.858Z,95642
2015-09-11T01:24:17.236Z,95641
2015-09-11T01:24:35.642Z,95641
2015-09-11T01:24:54.033Z,95633
2015-09-11T01:25:12.410Z,95638
2015-09-11T01:25:30.785Z,95641
2015-09-11T01:25:49.285Z,95633
2015-09-11T01:26:07.769Z,95636
2015-09-11T01:26:26.256Z,95642
2015-09-11T01:26:44.802Z,95636
2015-09-11T01:27:03.193Z,95633
2015-09-11T01:27:21.601Z,95639
2015-09-11T01:27:39.961Z,95636
2015-09-11T01:27:58.398Z,95641
2015-09-11T01:28:17.055Z,95636
2015-09-11T01:28:35.462Z,95642
2015-09-11T01:28:53.930Z,95636
2015-09-11T01:29:12.602Z,95636
2015-09-11T01:29:31.105Z,95645
2015-09-11T01:29:49.527Z,95637
2015-09-11T01:30:07.965Z,95637
2015-09-11T01:30:26.373Z,95645
2015-09-11T01:30:44.779Z,95632
2015-09-11T01:31:03.185Z,95643
2015-09-11T01:31:21.733Z,95643
2015-09-11T01:31:40.265Z,95638
2015-09-11T01:31:58.655Z,95643
2015-09-11T01:32:17.046Z,95634
2015-09-11T01:32:35.455Z,95645
2015-09-11T01:32:53.752Z,95637
2015-09-11T01:33:12.174Z,95632
2015-09-11T01:33:30.612Z,95637
2015-09-11T01:33:49.159Z,95645
2015-09-11T01:34:07.628Z,95637
2015-09-11T01:34:26.115Z,95637
2015-09-11T01:34:44.647Z,95640
2015-09-11T01:35:03.006Z,95638
2015-09-11T01:35:21.506Z,95646
2015-09-11T01:35:39.899Z,95634
2015-09-11T01:35:58.445Z,95637
2015-09-11T01:36:16.977Z,95645
2015-09-11T01:36:35.353Z,95645
2015-09-11T01:36:53.868Z,95637
2015-09-11T01:37:12.290Z,95637
2015-09-11T01:37:30.724Z,95642
2015-09-11T01:37:49.114Z,95648
2015-09-11T01:38:07.630Z,95651
2015-09-11T01:38:26.021Z,95640
2015-09-11T01:38:44.533Z,95656
2015-09-11T01:39:02.971Z,95648
2015-09-11T01:39:21.424Z,95651
2015-09-11T01:39:40.187Z,95648
2015-09-11T01:39:58.749Z,95649
2015-09-11T01:40:17.124Z,95649
2015-09-11T01:40:35.560Z,95646
2015-09-11T01:40:54.372Z,95649
2015-09-11T01:41:12.872Z,95652
2015-09-11T01:41:31.413Z,95652
2015-09-11T01:41:50.023Z,95652
2015-09-11T01:42:08.429Z,95655
2015-09-11T01:42:26.835Z,95650
2015-09-11T01:42:45.540Z,95653
2015-09-11T01:43:04.040Z,95650
2015-09-11T01:43:22.462Z,95656
2015-09-11T01:43:41.026Z,95656
2015-09-11T01:43:59.604Z,95656
2015-09-11T01:44:18.229Z,95664
2015-09-11T01:44:36.622Z,95648
2015-09-11T01:44:55.231Z,95653
2015-09-11T01:45:13.622Z,95650
2015-09-11T01:45:31.903Z,95647
2015-09-11T01:45:50.357Z,95652
2015-09-11T01:46:08.889Z,95650
2015-09-11T01:46:27.311Z,95650
2015-09-11T01:46:45.685Z,95655
2015-09-11T01:47:04.060Z,95652
2015-09-11T01:47:22.638Z,95661
2015-09-11T01:47:41.224Z,95655
2015-09-11T01:47:59.740Z,95647
2015-09-11T01:48:18.334Z,95644
2015-09-11T01:48:36.802Z,95644
2015-09-11T01:48:55.592Z,95646
2015-09-11T01:49:14.029Z,95641
2015-09-11T01:49:32.779Z,95647
2015-09-11T01:49:51.442Z,95650
2015-09-11T01:50:10.052Z,95650
2015-09-11T01:50:28.270Z,95652
2015-09-11T01:50:46.606Z,95655
2015-09-11T01:51:04.996Z,95655
2015-09-11T01:51:23.388Z,95652
2015-09-11T01:51:41.857Z,95644
2015-09-11T01:52:00.631Z,95652
2015-09-11T01:52:19.225Z,95641
2015-09-11T01:52:37.647Z,95652
2015-09-11T01:52:56.166Z,95649
2015-09-11T01:53:14.745Z,95655
2015-09-11T01:53:33.276Z,95650
2015-09-11T01:53:51.670Z,95650
2015-09-11T01:54:10.045Z,95655
2015-09-11T01:54:28.452Z,95653
2015-09-11T01:54:46.952Z,95661
2015-09-11T01:55:05.314Z,95650
2015-09-11T01:55:23.861Z,95655
2015-09-11T01:55:42.455Z,95652
2015-09-11T01:56:00.834Z,95646
2015-09-11T01:56:19.412Z,95646
2015-09-11T01:56:37.771Z,95649
2015-09-11T01:56:56.416Z,95654
2015-09-11T01:57:14.806Z,95649
2015-09-11T01:57:33.510Z,95647
2015-09-11T01:57:51.900Z,95647
2015-09-11T01:58:10.418Z,95650
2015-09-11T01:58:29.012Z,95648
2015-09-11T01:58:47.527Z,95653
2015-09-11T01:59:05.765Z,95661
2015-09-11T01:59:24.124Z,95644
2015-09-11T01:59:42.546Z,95642
2015-09-11T02:00:01.002Z,95642
2015-09-11T02:00:19.393Z,95639
2015-09-11T02:00:37.830Z,95650
2015-09-11T02:00:56.411Z,95658
2015-09-11T02:01:15.005Z,95644
2015-09-11T02:01:33.442Z,95644
2015-09-11T02:01:51.864Z,95650
2015-09-11T02:02:10.289Z,95642
2015-09-11T02:02:28.742Z,95656
2015-09-11T02:02:47.320Z,95635
2015-09-11T02:03:05.760Z,95651
2015-09-11T02:03:24.260Z,95662
2015-09-11T02:03:42.619Z,95651
2015-09-11T02:04:01.028Z,95651
2015-09-11T02:04:19.418Z,95650
2015-09-11T02:04:37.778Z,95640
2015-09-11T02:04:56.262Z,95650
2015-09-11T02:05:14.826Z,95653
2015-09-11T02:05:33.326Z,95659
2015-09-11T02:05:51.733Z,95650
2015-09-11T02:06:10.298Z,95651
2015-09-11T02:06:28.767Z,95650
2015-09-11T02:06:47.126Z,95658
2015-09-11T02:07:05.550Z,95653
2015-09-11T02:07:23.910Z,95644
2015-09-11T02:07:42.378Z,95653
2015-09-11T02:08:00.863Z,95650
2015-09-11T02:08:19.490Z,95650
2015-09-11T02:08:37.943Z,95648
2015-09-11T02:08:56.365Z,95653
2015-09-11T02:09:14.851Z,95640
2015-09-11T02:09:33.335Z,95651
2015-09-11T02:09:51.820Z,95656
2015-09-11T02:10:10.243Z,95653
2015-09-11T02:10:28.602Z,95651
2015-09-11T02:10:47.274Z,95643
2015-09-11T02:11:05.915Z,95651
2015-09-11T02:11:24.479Z,95656
2015-09-11T02:11:43.292Z,95645
2015-09-11T02:12:01.776Z,95651
2015-09-11T02:12:20.310Z,95640
2015-09-11T02:12:38.716Z,95648
2015-09-11T02:12:57.107Z,95645
2015-09-11T02:13:15.890Z,95645
2015-09-11T02:13:34.437Z,95642
2015-09-11T02:13:52.812Z,95645
2015-09-11T02:14:11.329Z,95653
2015-09-11T02:14:29.938Z,95656
2015-09-11T02:14:48.344Z,95648
2015-09-11T02:15:06.798Z,95648
2015-09-11T02:15:25.159Z,95651
2015-09-11T02:15:43.612Z,95642
2015-09-11T02:16:02.221Z,95656
2015-09-11T02:16:20.599Z,95647
2015-09-11T02:16:38.959Z,95648
2015-09-11T02:16:57.381Z,95650
2015-09-11T02:17:15.758Z,95656
2015-09-11T02:17:34.164Z,95648
2015-09-11T02:17:52.555Z,95648
2015-09-11T02:18:10.930Z,95650
2015-09-11T02:18:29.352Z,95647
2015-09-11T02:18:47.743Z,95650
2015-09-11T02:19:06.102Z,95640
2015-09-11T02:19:24.652Z,95650
2015-09-11T02:19:43.402Z,95645
2015-09-11T02:20:01.777Z,95650
2015-09-11T02:20:20.294Z,95648
2015-09-11T02:20:38.700Z,95648
2015-09-11T02:20:57.185Z,95645
2015-09-11T02:21:15.841Z,95651
2015-09-11T02:21:34.250Z,95648
2015-09-11T02:21:52.672Z,95640
2015-09-11T02:22:11.141Z,95640
2015-09-11T02:22:29.893Z,95651
2015-09-11T02:22:48.283Z,95643
2015-09-11T02:23:06.643Z,95648
2015-09-11T02:23:25.018Z,95646
2015-09-11T02:23:43.409Z,95643
2015-09-11T02:24:01.753Z,95637
2015-09-11T02:24:20.206Z,95648
2015-09-11T02:24:38.662Z,95635
2015-09-11T02:24:57.100Z,95649
2015-09-11T02:25:15.553Z,95640
2015-09-11T02:25:33.929Z,95646
2015-09-11T02:25:52.304Z,95646
2015-09-11T02:26:10.695Z,95640
2015-09-11T02:26:29.273Z,95646
2015-09-11T02:26:47.806Z,95640
2015-09-11T02:27:06.322Z,95648
2015-09-11T02:27:24.806Z,95648
2015-09-11T02:27:43.231Z,95635
2015-09-11T02:28:01.762Z,95638
2015-09-11T02:28:20.356Z,95646
2015-09-11T02:28:38.826Z,95643
2015-09-11T02:28:57.201Z,95652
2015-09-11T02:29:15.638Z,95643
2015-09-11T02:29:34.154Z,95641
2015-09-11T02:29:52.531Z,95646
2015-09-11T02:30:11.124Z,95646
2015-09-11T02:30:29.531Z,95646
2015-09-11T02:30:47.908Z,95649
2015-09-11T02:31:06.376Z,95640
2015-09-11T02:31:25.001Z,95643
2015-09-11T02:31:43.613Z,95651
2015-09-11T02:32:02.082Z,95645
2015-09-11T02:32:20.457Z,95640
2015-09-11T02:32:38.990Z,95634
2015-09-11T02:32:57.459Z,95637
2015-09-11T02:33:16.021Z,95645
2015-09-11T02:33:34.427Z,95651
2015-09-11T02:33:52.789Z,95637
2015-09-11T02:34:11.351Z,95642
2015-09-11T02:34:29.867Z,95651
2015-09-11T02:34:48.478Z,95648
2015-09-11T02:35:06.869Z,95642
2015-09-11T02:35:25.322Z,95640
2015-09-11T02:35:43.840Z,95646
2015-09-11T02:36:02.308Z,95641
2015-09-11T02:36:20.699Z,95635
2015-09-11T02:36:39.215Z,95635
2015-09-11T02:36:57.934Z,95641
2015-09-11T02:37:16.419Z,95635
2015-09-11T02:37:34.872Z,95638
2015-09-11T02:37:53.280Z,95638
2015-09-11T02:38:11.733Z,95636
2015-09-11T02:38:30.093Z,95644
2015-09-11T02:38:48.766Z,95639
2015-09-11T02:39:07.204Z,95649
2015-09-11T02:39:25.641Z,95636
2015-09-11T02:39:44.079Z,95631
2015-09-11T02:40:02.565Z,95647
2015-09-11T02:40:21.081Z,95652
2015-09-11T02:40:39.440Z,95649
2015-09-11T02:40:58.287Z,95646
2015-09-11T02:41:16.662Z,95644
2015-09-11T02:41:35.053Z,95652
2015-09-11T02:41:54.195Z,95646
2015-09-11T02:42:12.664Z,95652
2015-09-11T02:42:31.180Z,95649
2015-09-11T02:42:49.774Z,95650
2015-09-11T02:43:08.353Z,95641
2015-09-11T02:43:26.759Z,95647
2015-09-11T02:43:45.196Z,95653
2015-09-11T02:44:03.776Z,95648
2015-09-11T02:44:22.214Z,95648
2015-09-11T02:44:40.620Z,95651
2015-09-11T02:44:59.170Z,95647
2015-09-11T02:45:17.670Z,95647
2015-09-11T02:45:36.608Z,95647
2015-09-11T02:45:55.280Z,95653
2015-09-11T02:46:13.687Z,95645
2015-09-11T02:46:32.093Z,95642
2015-09-11T02:46:50.452Z,95646
2015-09-11T02:47:09.032Z,95648
2015-09-11T02:47:27.548Z,95651
2015-09-11T02:47:45.907Z,95651
2015-09-11T02:48:04.285Z,95651
2015-09-11T02:48:22.739Z,95651
2015-09-11T02:48:41.379Z,95640
2015-09-11T02:48:59.865Z,95653
2015-09-11T02:49:18.224Z,95642
2015-09-11T02:49:36.708Z,95645
2015-09-11T02:49:55.068Z,95650
2015-09-11T02:50:13.601Z,95655
2015-09-11T02:50:32.179Z,95645
2015-09-11T02:50:50.851Z,95653
2015-09-11T02:51:09.495Z,95648
2015-09-11T02:51:27.870Z,95640
2015-09-11T02:51:46.291Z,95645
2015-09-11T02:52:04.792Z,95642
2015-09-11T02:52:23.261Z,95650
2015-09-11T02:52:41.746Z,95647
2015-09-11T02:53:00.230Z,95639
2015-09-11T02:53:18.732Z,95648
2015-09-11T02:53:37.185Z,95634
2015-09-11T02:53:55.654Z,95648
2015-09-11T02:54:14.046Z,95634
2015-09-11T02:54:32.406Z,95651
2015-09-11T02:54:50.984Z,95652
2015-09-11T02:55:09.627Z,95638
2015-09-11T02:55:28.205Z,95646
2015-09-11T02:55:46.705Z,95635
2015-09-11T02:56:05.097Z,95648
2015-09-11T02:56:23.660Z,95640
2015-09-11T02:56:42.050Z,95645
2015-09-11T02:57:00.425Z,95643
2015-09-11T02:57:18.895Z,95640
2015-09-11T02:57:37.333Z,95645
2015-09-11T02:57:56.208Z,95634
2015-09-11T02:58:14.617Z,95656
2015-09-11T02:58:32.992Z,95634
2015-09-11T02:58:51.398Z,95646
2015-09-11T02:59:09.885Z,95646
2015-09-11T02:59:28.385Z,95640
2015-09-11T02:59:46.791Z,95648
2015-09-11T03:00:05.385Z,95632
2015-09-11T03:00:23.965Z,95648
2015-09-11T03:00:42.840Z,95640
2015-09-11T03:01:01.340Z,95645
2015-09-11T03:01:19.920Z,95651
2015-09-11T03:01:38.482Z,95639
2015-09-11T03:01:56.857Z,95650
2015-09-11T03:02:15.359Z,95651
2015-09-11T03:02:34.031Z,95656
2015-09-11T03:02:52.547Z,95646
2015-09-11T03:03:11.250Z,95643
2015-09-11T03:03:29.783Z,95649
2015-09-11T03:03:48.393Z,95646
2015-09-11T03:04:06.846Z,95643
2015-09-11T03:04:25.284Z,95646
2015-09-11T03:04:43.659Z,95654
2015-09-11T03:05:02.237Z,95646
2015-09-11T03:05:20.677Z,95646
2015-09-11T03:05:39.224Z,95652
2015-09-11T03:05:57.677Z,95644
2015-09-11T03:06:16.083Z,95646
2015-09-11T03:06:34.507Z,95650
2015-09-11T03:06:53.148Z,95647
2015-09-11T03:07:11.773Z,95658
2015-09-11T03:07:30.416Z,95647
2015-09-11T03:07:48.229Z,95649
2015-09-11T03:08:06.697Z,95658
2015-09-11T03:08:24.917Z,95647
2015-09-11T03:08:43.433Z,95647
2015-09-11T03:09:01.667Z,95652
2015-09-11T03:09:20.076Z,95644
2015-09-11T03:09:38.451Z,95647
2015-09-11T03:09:56.873Z,95644
2015-09-11T03:10:15.248Z,95655
2015-09-11T03:10:33.860Z,95656
2015-09-11T03:10:52.797Z,95645
2015-09-11T03:11:11.500Z,95653
2015-09-11T03:11:30.142Z,95653
2015-09-11T03:11:48.642Z,95653
2015-09-11T03:12:07.204Z,95658
2015-09-11T03:12:25.644Z,95644
2015-09-11T03:12:44.113Z,95653
2015-09-11T03:13:02.566Z,95648
2015-09-11T03:13:21.222Z,95658
2015-09-11T03:13:39.959Z,95642
2015-09-11T03:13:58.491Z,95650
2015-09-11T03:14:16.975Z,95647
2015-09-11T03:14:35.632Z,95647
2015-09-11T03:14:54.195Z,95636
2015-09-11T03:15:12.570Z,95650
2015-09-11T03:15:30.994Z,95652
2015-09-11T03:15:49.478Z,95641
2015-09-11T03:16:08.041Z,95646
2015-09-11T03:16:26.681Z,95655
2015-09-11T03:16:45.308Z,95652
2015-09-11T03:17:03.746Z,95644
2015-09-11T03:17:22.230Z,95652
2015-09-11T03:17:40.591Z,95650
2015-09-11T03:17:59.170Z,95647
2015-09-11T03:18:17.638Z,95641
2015-09-11T03:18:36.031Z,95658
2015-09-11T03:18:54.500Z,95644
2015-09-11T03:19:13.093Z,95641
2015-09-11T03:19:31.672Z,95652
2015-09-11T03:19:50.267Z,95641
2015-09-11T03:20:08.611Z,95644
2015-09-11T03:20:27.205Z,95652
2015-09-11T03:20:45.676Z,95647
2015-09-11T03:21:04.176Z,95644
2015-09-11T03:21:22.707Z,95635
2015-09-11T03:21:41.115Z,95646
2015-09-11T03:21:59.474Z,95638
2015-09-11T03:22:17.834Z,95651
2015-09-11T03:22:36.258Z,95648
2015-09-11T03:22:55.023Z,95659
2015-09-11T03:23:13.508Z,95644
2015-09-11T03:23:31.992Z,95641
2015-09-11T03:23:50.494Z,95644
2015-09-11T03:24:08.900Z,95652
2015-09-11T03:24:27.853Z,95644
2015-09-11T03:24:46.434Z,95638
2015-09-11T03:25:04.809Z,95654
2015-09-11T03:25:23.168Z,95649
2015-09-11T03:25:41.561Z,95635
2015-09-11T03:25:59.951Z,95646
2015-09-11T03:26:18.436Z,95646
2015-09-11T03:26:36.795Z,95635
2015-09-11T03:26:55.155Z,95636
2015-09-11T03:27:13.562Z,95644
2015-09-11T03:27:31.968Z,95636
2015-09-11T03:27:50.455Z,95644
2015-09-11T03:28:08.877Z,95636
2015-09-11T03:28:27.346Z,95642
2015-09-11T03:28:45.956Z,95639
2015-09-11T03:29:04.737Z,95634
2015-09-11T03:29:23.409Z,95637
2015-09-11T03:29:41.769Z,95639
2015-09-11T03:30:00.334Z,95639
2015-09-11T03:30:18.725Z,95642
2015-09-11T03:30:37.225Z,95639
2015-09-11T03:30:54.961Z,95636
2015-09-11T03:31:13.446Z,95639
2015-09-11T03:31:31.852Z,95644
2015-09-11T03:31:50.259Z,95641
2015-09-11T03:32:08.697Z,95642
2015-09-11T03:32:27.072Z,95639
2015-09-11T03:32:45.462Z,95642
2015-09-11T03:33:03.825Z,95645
2015-09-11T03:33:22.168Z,95639
2015-09-11T03:33:40.621Z,95639
2015-09-11T03:33:59.013Z,95639
2015-09-11T03:34:17.529Z,95642
2015-09-11T03:34:35.982Z,95639
2015-09-11T03:34:54.484Z,95636
2015-09-11T03:35:13.031Z,95637
2015-09-11T03:35:31.421Z,95642
2015-09-11T03:35:49.890Z,95642
2015-09-11T03:36:08.564Z,95631
2015-09-11T03:36:27.064Z,95633
2015-09-11T03:36:45.439Z,95649
2015-09-11T03:37:03.925Z,95633
2015-09-11T03:37:22.644Z,95633
2015-09-11T03:37:41.238Z,95634
2015-09-11T03:37:59.710Z,95645
2015-09-11T03:38:18.147Z,95637
2015-09-11T03:38:36.647Z,95640
2015-09-11T03:38:55.006Z,95632
2015-09-11T03:39:13.461Z,95640
2015-09-11T03:39:32.132Z,95640
2015-09-11T03:39:50.836Z,95634
2015-09-11T03:40:09.525Z,95629
2015-09-11T03:40:28.166Z,95636
2015-09-11T03:40:46.838Z,95639
2015-09-11T03:41:05.199Z,95633
2015-09-11T03:41:23.933Z,95636
2015-09-11T03:41:42.558Z,95623
2015-09-11T03:42:00.967Z,95625
2015-09-11T03:42:19.342Z,95636
2015-09-11T03:42:37.920Z,95630
2015-09-11T03:42:56.420Z,95636
2015-09-11T03:43:14.969Z,95623
2015-09-11T03:43:33.359Z,95631
2015-09-11T03:43:51.703Z,95629
2015-09-11T03:44:10.080Z,95632
2015-09-11T03:44:28.533Z,95632
2015-09-11T03:44:47.252Z,95629
2015-09-11T03:45:05.816Z,95629
2015-09-11T03:45:24.223Z,95638
2015-09-11T03:45:42.582Z,95633
2015-09-11T03:46:01.191Z,95635
2015-09-11T03:46:19.459Z,95635
2015-09-11T03:46:38.037Z,95638
2015-09-11T03:46:56.396Z,95633
2015-09-11T03:47:14.758Z,95633
2015-09-11T03:47:33.211Z,95636
2015-09-11T03:47:51.602Z,95629
2015-09-11T03:48:10.009Z,95630
2015-09-11T03:48:28.462Z,95636
2015-09-11T03:48:46.821Z,95630
2015-09-11T03:49:05.431Z,95644
2015-09-11T03:49:23.887Z,95622
2015-09-11T03:49:42.293Z,95627
2015-09-11T03:50:00.949Z,95633
2015-09-11T03:50:19.436Z,95633
2015-09-11T03:50:37.858Z,95644
2015-09-11T03:50:56.248Z,95627
2015-09-11T03:51:14.718Z,95637
2015-09-11T03:51:33.499Z,95632
2015-09-11T03:51:51.937Z,95635
2015-09-11T03:52:10.548Z,95632
2015-09-11T03:52:29.111Z,95632
2015-09-11T03:52:47.470Z,95624
2015-09-11T03:53:05.923Z,95633
2015-09-11T03:53:24.519Z,95635
2015-09-11T03:53:43.003Z,95630
2015-09-11T03:54:01.363Z,95635
2015-09-11T03:54:19.834Z,95638
2015-09-11T03:54:38.194Z,95621
2015-09-11T03:54:56.725Z,95625
2015-09-11T03:55:15.117Z,95624
2015-09-11T03:55:33.773Z,95619
2015-09-11T03:55:52.351Z,95625
2015-09-11T03:56:10.788Z,95619
2015-09-11T03:56:29.353Z,95627
2015-09-11T03:56:47.806Z,95618
2015-09-11T03:57:06.197Z,95627
2015-09-11T03:57:24.700Z,95627
2015-09-11T03:57:43.090Z,95619
2015-09-11T03:58:01.731Z,95622